Time;durP1;ratioP1;P1;durP2;ratioP2;P2;SDS_P1;SDS_P2;PMS_P1;PMS_P2;Temp;Humidity;BMP_temperature;BMP_pressure;BME280_temperature;BME280_humidity;BME280_pressure;Samples;Min_cycle;Max_cycle;Signal;HPM_P1;HPM_P2
2024/04/07 00:03:07;;;;;;;10.27;6.95;;;;;;;14.55;100.00;100915.00;10087002;28;20131;-71
2024/04/07 00:08:04;;;;;;;10.95;6.78;;;;;;;14.52;100.00;100906.25;10071168;28;20039;-70
2024/04/07 00:12:59;;;;;;;9.30;6.90;;;;;;;14.43;100.00;100901.97;10083326;28;20082;-72
2024/04/07 00:17:55;;;;;;;8.23;7.20;;;;;;;14.37;100.00;100898.66;10069978;28;20066;-71
2024/04/07 00:22:50;;;;;;;8.88;7.05;;;;;;;14.23;100.00;100898.16;10076283;28;20151;-70
2024/04/07 00:27:46;;;;;;;8.82;6.57;;;;;;;14.17;100.00;100888.50;10086602;28;20427;-70
2024/04/07 00:32:41;;;;;;;8.40;6.65;;;;;;;14.05;100.00;100879.03;10085859;28;20138;-71
2024/04/07 00:37:37;;;;;;;9.48;6.70;;;;;;;13.97;100.00;100876.38;10068870;28;20055;-70
2024/04/07 00:42:32;;;;;;;8.65;7.28;;;;;;;13.90;100.00;100868.66;10069061;28;20130;-71
2024/04/07 00:47:28;;;;;;;9.75;7.10;;;;;;;13.84;100.00;100870.03;10067560;28;20039;-70
2024/04/07 00:52:24;;;;;;;10.25;6.75;;;;;;;13.77;100.00;100859.56;10086834;28;20039;-71
2024/04/07 00:57:19;;;;;;;10.80;6.72;;;;;;;13.77;100.00;100856.81;10104044;28;20126;-70
2024/04/07 01:02:15;;;;;;;8.50;6.97;;;;;;;13.74;100.00;100846.50;10075877;28;20045;-70
2024/04/07 01:07:11;;;;;;;9.38;6.30;;;;;;;13.74;100.00;100842.94;10076614;28;20058;-71
2024/04/07 01:12:12;;;;;;;8.68;6.70;;;;;;;13.71;100.00;100838.13;10079354;28;20055;-70
2024/04/07 01:17:08;;;;;;;9.18;6.57;;;;;;;13.64;100.00;100822.97;10092352;28;20070;-71
2024/04/07 01:22:04;;;;;;;7.65;6.80;;;;;;;13.57;100.00;100819.97;10074096;28;20047;-70
2024/04/07 01:26:59;;;;;;;8.60;6.55;;;;;;;13.55;100.00;100829.69;10074551;28;20039;-70
2024/04/07 01:31:55;;;;;;;7.55;6.18;;;;;;;13.50;100.00;100827.13;10073917;28;20117;-70
2024/04/07 01:36:50;;;;;;;7.80;6.53;;;;;;;13.44;100.00;100843.03;10092358;28;20400;-70
2024/04/07 01:41:46;;;;;;;9.18;6.57;;;;;;;13.34;100.00;100846.16;10098903;28;20137;-70
2024/04/07 01:46:41;;;;;;;10.45;6.85;;;;;;;13.31;100.00;100839.38;10070799;28;20046;-70
2024/04/07 01:51:37;;;;;;;14.60;7.47;;;;;;;13.24;100.00;100842.63;10115502;28;20054;-70
2024/04/07 01:56:33;;;;;;;8.68;6.38;;;;;;;13.20;100.00;100838.91;10080276;28;20427;-70
2024/04/07 02:01:28;;;;;;;8.80;7.60;;;;;;;13.16;100.00;100818.78;10092159;28;20051;-70
2024/04/07 02:06:24;;;;;;;8.73;6.68;;;;;;;13.32;100.00;100826.44;10092997;28;20039;-70
2024/04/07 02:11:19;;;;;;;7.82;6.75;;;;;;;13.45;100.00;100819.91;10073431;28;20050;-70
2024/04/07 02:16:15;;;;;;;6.78;6.07;;;;;;;13.53;100.00;100810.81;10069051;28;20062;-71
2024/04/07 02:21:11;;;;;;;6.38;5.70;;;;;;;13.64;100.00;100802.94;10079289;28;20452;-70
2024/04/07 02:26:07;;;;;;;6.10;5.30;;;;;;;13.64;100.00;100800.97;10073347;28;20738;-70
2024/04/07 02:31:03;;;;;;;5.65;5.05;;;;;;;13.78;100.00;100778.72;10092553;28;20051;-71
2024/04/07 02:35:58;;;;;;;4.93;4.40;;;;;;;13.87;100.00;100786.88;10089350;28;20448;-70
2024/04/07 02:40:54;;;;;;;5.22;4.70;;;;;;;13.99;100.00;100777.88;10071805;28;20434;-71
2024/04/07 02:51:03;;;;;;;5.32;4.65;;;;;;;14.05;100.00;100774.56;10073414;28;20071;-70
2024/04/07 02:55:59;;;;;;;7.05;4.75;;;;;;;14.17;100.00;100764.75;10099236;28;20077;-70
2024/04/07 03:01:05;;;;;;;6.57;4.63;;;;;;;14.22;100.00;100765.31;10095134;28;20048;-70
2024/04/07 03:06:05;;;;;;;5.75;4.57;;;;;;;14.15;100.00;100778.03;10087907;28;20075;-70
2024/04/07 03:11:02;;;;;;;6.10;5.00;;;;;;;14.19;100.00;100773.47;10077136;28;20144;-70
2024/04/07 03:15:57;;;;;;;5.30;4.80;;;;;;;14.16;100.00;100776.91;10087470;28;20086;-70
2024/04/07 03:20:53;;;;;;;5.72;5.10;;;;;;;14.20;100.00;100775.06;10099057;28;20043;-71
2024/04/07 03:25:48;;;;;;;5.20;4.70;;;;;;;14.23;100.00;100783.44;10083786;28;20043;-70
2024/04/07 03:30:44;;;;;;;5.70;5.18;;;;;;;14.25;100.00;100794.09;10071728;28;20138;-70
2024/04/07 03:35:39;;;;;;;5.80;5.30;;;;;;;14.25;100.00;100783.09;10066259;28;20130;-70
2024/04/07 03:40:38;;;;;;;6.95;5.63;;;;;;;14.18;100.00;100783.66;10074749;28;20047;-70
2024/04/07 03:45:34;;;;;;;6.45;5.95;;;;;;;14.24;100.00;100767.75;10069587;28;20071;-70
2024/04/07 03:50:29;;;;;;;7.03;6.32;;;;;;;14.43;100.00;100762.47;10071734;28;20051;-70
2024/04/07 03:55:25;;;;;;;5.45;5.05;;;;;;;14.45;100.00;100762.94;10071493;28;20126;-70
2024/04/07 04:00:20;;;;;;;6.20;5.60;;;;;;;14.49;100.00;100768.56;10074142;28;20046;-71
2024/04/07 04:05:16;;;;;;;9.02;6.03;;;;;;;14.66;100.00;100737.31;10086423;28;20066;-71
2024/04/07 04:10:12;;;;;;;6.57;5.80;;;;;;;14.85;100.00;100772.50;10072637;28;20055;-70
2024/04/07 04:15:07;;;;;;;6.22;5.53;;;;;;;14.93;100.00;100772.38;10088376;28;20423;-70
2024/04/07 04:20:03;;;;;;;7.30;5.68;;;;;;;14.98;100.00;100784.31;10108145;28;20129;-70
2024/04/07 04:24:59;;;;;;;5.90;5.35;;;;;;;15.22;100.00;100798.03;10091079;28;20063;-71
2024/04/07 04:29:54;;;;;;;7.20;5.60;;;;;;;15.23;100.00;100813.41;10094061;28;20039;-70
2024/04/07 04:34:50;;;;;;;7.50;5.07;;;;;;;15.23;100.00;100843.72;10041291;28;20047;-71
2024/04/07 04:39:46;;;;;;;6.22;5.53;;;;;;;15.26;100.00;100840.25;10089953;28;20046;-70
2024/04/07 04:44:42;;;;;;;6.60;5.85;;;;;;;15.18;100.00;100863.22;10082496;28;20117;-70
2024/04/07 04:49:37;;;;;;;5.57;5.13;;;;;;;15.55;100.00;100879.72;10069804;28;20062;-70
2024/04/07 04:54:33;;;;;;;6.10;5.38;;;;;;;16.04;100.00;100896.13;10068933;28;20039;-70
2024/04/07 04:59:29;;;;;;;9.90;5.00;;;;;;;16.55;100.00;100918.44;10085220;28;20048;-70
2024/04/07 05:04:24;;;;;;;6.20;4.95;;;;;;;16.62;100.00;100932.44;10085921;28;20047;-70
2024/04/07 05:09:20;;;;;;;9.75;4.82;;;;;;;16.54;100.00;100947.19;10064429;28;20423;-70
2024/04/07 05:14:15;;;;;;;7.00;4.68;;;;;;;16.39;100.00;100962.56;10040315;29;20406;-70
2024/04/07 05:19:11;;;;;;;6.10;4.38;;;;;;;16.38;100.00;101020.84;10048698;28;20608;-70
2024/04/07 05:24:09;;;;;;;5.88;4.72;;;;;;;16.14;100.00;101021.72;10037225;29;20688;-70
2024/04/07 05:29:04;;;;;;;7.22;4.85;;;;;;;15.93;100.00;101068.75;10065470;28;20042;-70
2024/04/07 05:34:00;;;;;;;8.45;5.13;;;;;;;15.77;100.00;101102.50;10088627;28;20615;-70
2024/04/07 05:38:56;;;;;;;5.78;4.65;;;;;;;15.59;100.00;101106.59;10090480;28;20050;-70
2024/04/07 05:43:51;;;;;;;9.45;4.65;;;;;;;15.46;100.00;101140.81;10082625;28;20047;-70
2024/04/07 05:48:47;;;;;;;6.28;5.13;;;;;;;15.38;100.00;101130.66;10091773;28;20055;-70
2024/04/07 05:53:42;;;;;;;9.05;5.38;;;;;;;15.28;100.00;101140.97;10074628;28;20130;-70
2024/04/07 05:58:39;;;;;;;6.13;5.40;;;;;;;15.28;100.00;101157.50;10078819;28;20059;-70
2024/04/07 06:03:34;;;;;;;8.68;5.30;;;;;;;15.31;100.00;101162.31;10077719;28;20601;-70
2024/04/07 06:08:30;;;;;;;8.38;5.38;;;;;;;15.27;100.00;101177.94;10080677;28;20047;-70
2024/04/07 06:13:25;;;;;;;6.07;5.47;;;;;;;15.33;100.00;101182.09;10073532;28;20655;-70
2024/04/07 06:18:21;;;;;;;8.27;5.60;;;;;;;15.33;100.00;101176.56;10085063;28;20563;-70
2024/04/07 06:23:16;;;;;;;6.65;6.05;;;;;;;15.42;100.00;101197.75;10078541;28;20046;-70
2024/04/07 06:28:12;;;;;;;9.75;6.05;;;;;;;15.42;100.00;101195.78;10076512;28;20066;-70
2024/04/07 06:33:08;;;;;;;8.02;5.90;;;;;;;15.42;100.00;101189.47;10073754;28;20051;-70
2024/04/07 06:38:04;;;;;;;7.40;5.45;;;;;;;15.48;100.00;101215.66;10073933;28;20567;-70
2024/04/07 06:42:59;;;;;;;7.63;5.15;;;;;;;15.52;100.00;101211.88;10095088;28;20076;-70
2024/04/07 06:47:55;;;;;;;6.28;5.30;;;;;;;15.59;100.00;101216.84;10046977;28;20524;-71
2024/04/07 06:52:50;;;;;;;6.38;4.80;;;;;;;15.72;100.00;101215.78;10078236;28;20507;-70
2024/04/07 06:57:46;;;;;;;6.95;4.93;;;;;;;15.73;100.00;101211.88;10092950;28;20681;-70
2024/04/07 07:02:41;;;;;;;5.97;5.35;;;;;;;15.71;100.00;101225.19;10071984;28;20117;-70
2024/04/07 07:07:37;;;;;;;5.72;5.22;;;;;;;15.85;100.00;101254.41;10079037;28;20538;-70
2024/04/07 07:12:33;;;;;;;5.70;5.03;;;;;;;15.78;100.00;101250.25;10088430;28;20074;-70
2024/04/07 07:17:29;;;;;;;5.47;4.97;;;;;;;15.89;100.00;101241.53;10095675;28;20071;-70
2024/04/07 07:22:25;;;;;;;10.55;5.63;;;;;;;15.89;100.00;101231.31;10092358;28;20144;-70
2024/04/07 07:27:20;;;;;;;7.85;5.93;;;;;;;15.98;100.00;101234.78;10076619;28;20063;-70
2024/04/07 07:32:17;;;;;;;9.38;5.28;;;;;;;16.17;100.00;101237.00;10069647;28;20119;-70
2024/04/07 07:37:13;;;;;;;6.72;5.35;;;;;;;16.38;100.00;101263.69;10072164;28;20035;-71
2024/04/07 07:42:08;;;;;;;6.97;5.07;;;;;;;16.34;100.00;101257.25;10090779;28;20061;-71
2024/04/07 07:47:04;;;;;;;6.20;4.90;;;;;;;16.23;100.00;101240.34;10076120;28;20054;-69
2024/04/07 07:51:59;;;;;;;6.93;4.70;;;;;;;16.12;100.00;101245.50;10077544;28;20039;-71
2024/04/07 07:56:55;;;;;;;7.57;4.97;;;;;;;16.03;100.00;101231.00;10093879;28;20039;-71
2024/04/07 08:01:50;;;;;;;6.10;5.22;;;;;;;15.98;100.00;101275.34;10090898;28;20074;-71
2024/04/07 08:06:46;;;;;;;6.13;4.88;;;;;;;15.88;100.00;101278.56;10072117;28;20044;-70
2024/04/07 08:11:41;;;;;;;5.47;4.97;;;;;;;15.60;100.00;101301.16;10072314;28;20126;-71
2024/04/07 08:16:37;;;;;;;6.05;5.07;;;;;;;15.34;100.00;101304.94;10077980;28;20047;-71
2024/04/07 08:21:33;;;;;;;5.60;5.10;;;;;;;15.36;100.00;101321.94;10071811;28;20062;-70
2024/04/07 08:26:28;;;;;;;6.18;5.07;;;;;;;15.54;100.00;101321.78;10075444;28;20035;-70
2024/04/07 08:31:24;;;;;;;5.35;4.85;;;;;;;15.80;100.00;101307.00;10072871;28;20051;-70
2024/04/07 08:36:19;;;;;;;5.22;4.72;;;;;;;16.12;100.00;101317.22;10072976;28;20045;-71
2024/04/07 08:41:16;;;;;;;5.20;4.70;;;;;;;16.20;100.00;101285.97;10069712;28;20054;-71
2024/04/07 08:46:13;;;;;;;5.22;4.72;;;;;;;16.36;100.00;101293.56;10069781;28;20067;-72
2024/04/07 08:51:10;;;;;;;5.30;4.80;;;;;;;16.45;100.00;101308.06;10081756;28;20558;-71
2024/04/07 08:56:10;;;;;;;5.93;5.43;;;;;;;16.48;100.00;101307.41;10076708;28;20043;-71
2024/04/07 09:01:11;;;;;;;5.38;4.85;;;;;;;16.74;100.00;101314.56;10065204;28;20074;-71
2024/04/07 09:06:06;;;;;;;4.95;4.53;;;;;;;16.87;100.00;101307.88;10077722;28;20200;-70
2024/04/07 09:11:02;;;;;;;7.75;4.93;;;;;;;16.94;100.00;101301.78;10085150;28;20051;-71
2024/04/07 09:15:58;;;;;;;5.35;4.40;;;;;;;16.72;100.00;101286.47;10083504;28;20067;-70
2024/04/07 09:20:53;;;;;;;6.90;4.90;;;;;;;17.05;100.00;101302.91;10087625;28;20062;-71
2024/04/07 09:25:53;;;;;;;8.93;4.57;;;;;;;17.25;100.00;101306.69;10082042;28;20130;-71
2024/04/07 09:30:48;;;;;;;7.35;4.60;;;;;;;17.44;100.00;101284.75;10077366;28;20597;-70
2024/04/07 09:35:45;;;;;;;5.72;4.90;;;;;;;17.73;100.00;101299.41;10082645;28;20058;-71
2024/04/07 09:40:46;;;;;;;5.15;4.75;;;;;;;17.82;100.00;101308.38;10098166;28;20039;-71
2024/04/07 09:45:47;;;;;;;6.28;4.68;;;;;;;18.02;100.00;101294.66;10076751;28;20955;-71
2024/04/07 09:50:48;;;;;;;5.30;4.75;;;;;;;17.96;100.00;101301.59;10100213;28;20098;-71
2024/04/07 09:55:47;;;;;;;4.90;4.50;;;;;;;18.07;100.00;101299.94;10076267;28;20467;-70
2024/04/07 10:00:43;;;;;;;7.32;5.20;;;;;;;18.49;100.00;101313.25;10106945;28;20054;-71
2024/04/07 10:05:38;;;;;;;7.35;4.90;;;;;;;18.44;100.00;101302.47;10092641;28;20078;-70
2024/04/07 10:10:34;;;;;;;5.53;5.00;;;;;;;18.59;100.00;101301.66;10101561;28;20122;-71
2024/04/07 10:15:30;;;;;;;5.78;4.95;;;;;;;19.26;100.00;101317.47;10072096;28;20130;-71
2024/04/07 10:20:27;;;;;;;8.82;4.57;;;;;;;19.09;100.00;101302.84;10076633;28;20504;-71
2024/04/07 10:25:22;;;;;;;5.65;5.15;;;;;;;19.45;100.00;101311.16;10088029;28;20267;-71
2024/04/07 10:30:20;;;;;;;6.78;5.25;;;;;;;19.99;100.00;101310.28;10077288;28;20039;-71
2024/04/07 10:35:15;;;;;;;6.20;4.97;;;;;;;20.15;100.00;101296.28;10079177;28;20055;-71
2024/04/07 10:40:13;;;;;;;5.90;4.85;;;;;;;-146.18;100.00;67994.34;10051571;28;20083;-71
2024/04/07 10:45:11;;;;;;;5.45;4.93;;;;;;;19.97;100.00;101296.75;10089777;28;20091;-71
2024/04/07 10:50:08;;;;;;;5.00;4.60;;;;;;;19.66;100.00;101308.81;10078903;28;20532;-71
2024/04/07 10:55:04;;;;;;;6.40;4.70;;;;;;;19.50;100.00;101314.44;10091669;28;20079;-71
2024/04/07 11:00:00;;;;;;;6.25;4.93;;;;;;;19.91;100.00;101314.91;10083904;28;20055;-71
2024/04/07 11:04:56;;;;;;;5.65;5.10;;;;;;;19.92;100.00;101310.13;10071725;28;20495;-71
2024/04/07 11:09:53;;;;;;;5.28;4.78;;;;;;;19.80;100.00;101316.66;10096263;28;20503;-71
2024/04/07 11:14:49;;;;;;;5.45;4.95;;;;;;;20.01;100.00;101323.78;10110057;28;20046;-70
2024/04/07 11:19:44;;;;;;;6.78;4.72;;;;;;;19.93;100.00;101334.72;10092284;28;20626;-71
2024/04/07 11:24:40;;;;;;;6.05;5.00;;;;;;;19.68;100.00;101338.94;10089339;28;20042;-71
2024/04/07 11:29:37;;;;;;;7.82;4.47;;;;;;;19.77;100.00;101325.69;10039017;28;20044;-71
2024/04/07 11:34:33;;;;;;;5.78;5.10;;;;;;;20.57;100.00;101328.78;10069413;28;20043;-71
2024/04/07 11:39:28;;;;;;;6.95;5.13;;;;;;;21.14;100.00;101328.84;10089986;28;20049;-70
2024/04/07 11:44:24;;;;;;;5.20;4.70;;;;;;;21.02;100.00;101335.44;10074391;28;20040;-72
2024/04/07 11:49:19;;;;;;;10.57;5.30;;;;;;;20.91;100.00;101338.06;10075022;28;20047;-71
2024/04/07 11:54:15;;;;;;;5.85;5.25;;;;;;;21.13;100.00;101319.72;10051093;28;20047;-71
2024/04/07 11:59:11;;;;;;;5.03;4.63;;;;;;;21.54;100.00;101355.28;10079793;28;20048;-71
2024/04/07 12:04:06;;;;;;;5.20;4.78;;;;;;;21.28;100.00;101345.75;10082147;28;20059;-70
2024/04/07 12:09:03;;;;;;;5.25;4.70;;;;;;;21.31;100.00;101327.50;10080607;28;20050;-72
2024/04/07 12:13:59;;;;;;;6.43;4.72;;;;;;;21.40;100.00;101351.09;10075904;28;20047;-70
2024/04/07 12:18:55;;;;;;;7.10;4.32;;;;;;;21.09;100.00;101337.50;10075740;28;20059;-70
2024/04/07 12:23:50;;;;;;;5.95;4.35;;;;;;;21.57;100.00;101330.25;10095771;28;20083;-70
2024/04/07 12:28:46;;;;;;;5.93;4.90;;;;;;;22.41;100.00;101322.44;10087112;28;20131;-70
2024/04/07 12:33:45;;;;;;;5.68;4.43;;;;;;;22.57;100.00;101335.31;10083721;28;20126;-70
2024/04/07 12:38:40;;;;;;;5.93;4.60;;;;;;;22.52;100.00;101338.47;10087073;28;20499;-71
2024/04/07 12:43:36;;;;;;;5.00;4.53;;;;;;;23.76;93.70;101342.44;10044571;28;20119;-71
2024/04/07 12:48:33;;;;;;;5.35;4.50;;;;;;;23.33;82.40;101340.25;10047248;28;20053;-71
2024/04/07 12:53:29;;;;;;;5.22;4.70;;;;;;;23.43;83.94;101330.31;10049079;28;20539;-70
2024/04/07 12:58:24;;;;;;;5.88;4.95;;;;;;;24.02;84.54;101328.19;10067969;28;20039;-71
2024/04/07 13:03:20;;;;;;;6.57;4.45;;;;;;;23.77;85.79;101327.31;10052942;28;20051;-70
2024/04/07 13:08:15;;;;;;;5.35;4.85;;;;;;;22.58;98.61;101331.31;10086842;28;20051;-70
2024/04/07 13:13:11;;;;;;;5.57;4.30;;;;;;;21.96;100.00;101346.63;10054381;28;20055;-70
2024/04/07 13:18:06;;;;;;;5.10;4.57;;;;;;;23.13;97.81;101328.56;10081812;28;20539;-69
2024/04/07 13:23:02;;;;;;;5.65;5.05;;;;;;;23.70;90.11;101333.63;10084420;28;20051;-70
2024/04/07 13:27:57;;;;;;;5.10;4.60;;;;;;;24.20;87.25;101328.19;10092256;28;20035;-71
2024/04/07 13:32:53;;;;;;;5.80;4.60;;;;;;;24.61;75.79;101319.47;10076751;28;20054;-71
2024/04/07 13:37:49;;;;;;;5.72;5.10;;;;;;;24.75;69.78;101318.66;10088408;28;20043;-70
2024/04/07 13:42:45;;;;;;;5.60;4.60;;;;;;;23.88;73.27;101316.94;10077139;28;20039;-71
2024/04/07 13:47:41;;;;;;;5.72;4.63;;;;;;;23.49;79.08;101312.03;10076017;28;20071;-71
2024/04/07 13:52:37;;;;;;;5.75;4.70;;;;;;;23.61;78.48;101320.03;10077907;28;20395;-71
2024/04/07 13:57:34;;;;;;;5.60;4.75;;;;;;;22.72;89.31;101309.16;10076832;28;20146;-72
2024/04/07 14:02:30;;;;;;;5.50;4.97;;;;;;;23.45;86.25;101305.63;10074932;28;20071;-71
2024/04/07 14:07:26;;;;;;;5.25;4.75;;;;;;;23.00;88.27;101299.41;10083476;28;20039;-70
2024/04/07 14:12:22;;;;;;;5.05;4.50;;;;;;;24.03;84.71;101301.84;10098889;28;20571;-71
2024/04/07 14:17:17;;;;;;;14.77;4.90;;;;;;;23.64;83.13;101296.13;10080652;28;20067;-70
2024/04/07 14:22:13;;;;;;;5.63;4.70;;;;;;;23.82;81.60;101297.00;10077838;28;20174;-70
2024/04/07 14:27:10;;;;;;;5.03;4.55;;;;;;;24.98;76.45;101282.66;10073901;28;20043;-70
2024/04/07 14:32:05;;;;;;;5.72;5.22;;;;;;;25.29;77.89;101291.38;10090964;28;20072;-71
2024/04/07 14:37:01;;;;;;;6.18;4.90;;;;;;;24.78;78.96;101282.28;10092292;28;20064;-70
2024/04/07 14:41:56;;;;;;;9.13;4.70;;;;;;;25.23;77.38;101281.81;10077595;28;20047;-71
2024/04/07 14:46:52;;;;;;;5.15;4.65;;;;;;;25.15;76.79;101281.00;10096126;28;20130;-70
2024/04/07 14:51:48;;;;;;;5.43;4.93;;;;;;;24.11;76.41;101283.91;10076773;28;20055;-70
2024/04/07 14:56:43;;;;;;;5.55;4.65;;;;;;;23.37;80.33;101278.88;10079396;28;20055;-71
2024/04/07 15:01:39;;;;;;;4.68;4.28;;;;;;;23.25;83.78;101258.47;10072540;28;20047;-71
2024/04/07 15:06:34;;;;;;;5.35;4.40;;;;;;;23.24;80.08;101256.91;10087248;28;20058;-70
2024/04/07 15:11:30;;;;;;;7.43;4.80;;;;;;;24.82;78.03;101240.34;10081410;28;20102;-71
2024/04/07 15:16:25;;;;;;;6.20;4.93;;;;;;;25.72;63.13;101257.59;10077643;28;20030;-71
2024/04/07 15:21:21;;;;;;;5.63;4.25;;;;;;;25.20;63.15;101232.25;10072389;28;20041;-70
2024/04/07 15:26:16;;;;;;;5.07;4.60;;;;;;;24.61;67.68;101246.00;10091362;28;20123;-71
2024/04/07 15:31:13;;;;;;;5.50;4.60;;;;;;;24.54;67.84;101236.41;10087669;28;20047;-71
2024/04/07 15:36:08;;;;;;;4.93;4.00;;;;;;;24.36;67.52;101235.59;10078980;28;20076;-70
2024/04/07 15:41:04;;;;;;;5.05;4.15;;;;;;;25.08;66.92;101219.47;10073875;28;20077;-71
2024/04/07 15:46:00;;;;;;;5.68;4.07;;;;;;;24.22;66.74;101218.84;10088730;28;20046;-71
2024/04/07 15:50:56;;;;;;;5.70;4.35;;;;;;;24.18;69.97;101201.28;10074931;28;20721;-71
2024/04/07 15:55:51;;;;;;;4.78;4.28;;;;;;;24.04;71.52;101208.44;10089380;28;20047;-71
2024/04/07 16:00:47;;;;;;;6.47;4.97;;;;;;;24.52;67.66;101196.88;10090014;28;20142;-71
2024/04/07 16:05:42;;;;;;;5.28;4.40;;;;;;;24.52;68.72;101185.69;10078604;28;20098;-71
2024/04/07 16:10:38;;;;;;;4.57;4.18;;;;;;;24.76;72.18;101181.25;10087696;28;20066;-71
2024/04/07 16:15:34;;;;;;;6.68;4.70;;;;;;;24.57;71.74;101195.66;10071568;28;20047;-71
2024/04/07 16:20:29;;;;;;;5.97;4.57;;;;;;;24.13;67.94;101183.72;10091388;28;20041;-71
2024/04/07 16:25:25;;;;;;;5.63;3.97;;;;;;;23.79;64.89;101180.53;10088194;28;20740;-71
2024/04/07 16:30:20;;;;;;;4.47;4.07;;;;;;;23.56;65.16;101166.91;10084457;28;20480;-70
2024/04/07 16:35:16;;;;;;;5.70;4.30;;;;;;;23.60;58.98;101167.72;10087780;28;20484;-71
2024/04/07 16:40:15;;;;;;;5.90;4.28;;;;;;;23.15;60.01;101174.78;10070144;28;20657;-71
2024/04/07 16:45:11;;;;;;;4.80;4.30;;;;;;;22.72;62.24;101168.97;10084481;28;20101;-71
2024/04/07 16:50:06;;;;;;;6.22;4.10;;;;;;;22.70;65.84;101166.59;10088452;28;20046;-71
2024/04/07 16:55:04;;;;;;;5.93;4.20;;;;;;;22.62;63.67;101176.88;10086891;28;20133;-71
2024/04/07 17:00:00;;;;;;;7.00;4.47;;;;;;;23.02;66.69;101175.16;10091397;28;20510;-71
2024/04/07 17:04:55;;;;;;;6.15;5.03;;;;;;;23.75;61.37;101178.94;10075885;28;20044;-71
2024/04/07 17:09:51;;;;;;;4.88;4.38;;;;;;;23.48;60.54;101176.47;10091351;28;20050;-71
2024/04/07 17:14:46;;;;;;;5.18;4.40;;;;;;;22.60;66.47;101172.91;10069860;28;20046;-71
2024/04/07 17:19:42;;;;;;;4.90;4.30;;;;;;;22.16;77.36;101166.19;10079512;28;20122;-70
2024/04/07 17:24:38;;;;;;;6.25;4.20;;;;;;;21.43;79.26;101168.75;10047527;28;20251;-71
2024/04/07 17:29:33;;;;;;;5.68;4.35;;;;;;;21.17;79.68;101164.84;10072640;28;20051;-71
2024/04/07 17:34:30;;;;;;;5.70;4.03;;;;;;;21.04;84.44;101174.63;10085198;28;20392;-71
2024/04/07 17:39:25;;;;;;;5.00;4.45;;;;;;;20.68;86.03;101167.78;10079537;28;20094;-71
2024/04/07 17:44:22;;;;;;;8.20;4.18;;;;;;;20.64;91.43;101159.41;10066751;28;20059;-71
2024/04/07 17:49:18;;;;;;;6.03;4.00;;;;;;;20.41;92.33;101169.78;10069507;28;20117;-72
2024/04/07 17:54:13;;;;;;;4.75;4.13;;;;;;;20.21;100.00;101172.63;10103801;28;21570;-72
2024/04/07 17:59:09;;;;;;;7.03;4.40;;;;;;;19.77;100.00;101181.41;10094883;28;20053;-73
2024/04/07 18:04:04;;;;;;;9.25;4.60;;;;;;;19.39;100.00;101188.63;10081272;28;20053;-73
2024/04/07 18:09:01;;;;;;;5.50;4.63;;;;;;;19.09;100.00;101183.69;10072362;28;20039;-73
2024/04/07 18:13:57;;;;;;;5.93;4.70;;;;;;;19.35;100.00;101182.19;10071845;28;20503;-71
2024/04/07 18:18:53;;;;;;;5.05;4.55;;;;;;;19.46;100.00;101182.41;10071140;28;20042;-71
2024/04/07 18:23:48;;;;;;;7.65;4.75;;;;;;;19.40;100.00;101200.50;10030617;29;20078;-72
2024/04/07 18:28:44;;;;;;;5.45;4.38;;;;;;;19.47;100.00;101217.28;10061863;28;20514;-71
2024/04/07 18:33:39;;;;;;;5.97;4.75;;;;;;;19.41;100.00;101214.03;10072109;28;20411;-72
2024/04/07 18:38:35;;;;;;;5.18;4.68;;;;;;;19.45;100.00;101198.25;10073953;28;20187;-72
2024/04/07 18:43:31;;;;;;;6.85;4.80;;;;;;;19.46;100.00;101208.16;10070251;28;20069;-71
2024/04/07 18:48:27;;;;;;;7.40;4.85;;;;;;;19.42;100.00;101206.50;10065361;28;20086;-71
2024/04/07 18:53:23;;;;;;;5.93;5.22;;;;;;;19.47;100.00;101201.47;10070659;28;20051;-71
2024/04/07 18:58:18;;;;;;;5.55;4.72;;;;;;;19.36;100.00;101200.47;10078043;28;20063;-72
2024/04/07 19:03:15;;;;;;;7.90;5.28;;;;;;;19.29;100.00;101197.56;10049006;28;20067;-71
2024/04/07 19:08:10;;;;;;;5.88;5.22;;;;;;;19.12;100.00;101194.06;10048707;28;20067;-71
2024/04/07 19:13:06;;;;;;;5.88;5.03;;;;;;;19.16;100.00;101196.09;10047944;28;20036;-72
2024/04/07 19:18:01;;;;;;;6.03;4.82;;;;;;;19.22;100.00;101200.19;10060744;28;20053;-71
2024/04/07 19:22:57;;;;;;;5.95;5.07;;;;;;;18.99;100.00;101192.59;10089332;28;20046;-71
2024/04/07 19:27:52;;;;;;;5.93;5.32;;;;;;;19.02;100.00;101177.19;10072761;28;20126;-72
2024/04/07 19:32:48;;;;;;;8.88;4.95;;;;;;;18.98;100.00;101163.25;10070380;28;20084;-71
2024/04/07 19:37:43;;;;;;;6.65;5.50;;;;;;;18.91;100.00;101177.78;10074454;28;20043;-72
2024/04/07 19:42:39;;;;;;;6.60;5.47;;;;;;;18.77;100.00;101179.44;10068982;28;20051;-71
2024/04/07 19:47:34;;;;;;;7.25;5.50;;;;;;;18.59;100.00;101193.66;10072453;28;20043;-72
2024/04/07 19:52:30;;;;;;;7.07;5.10;;;;;;;18.58;100.00;101205.88;10067305;28;20162;-71
2024/04/07 19:57:25;;;;;;;5.13;4.63;;;;;;;18.63;100.00;101197.28;10074696;28;20040;-72
2024/04/07 20:02:21;;;;;;;5.97;5.38;;;;;;;18.62;100.00;101198.47;10067079;28;20031;-68
2024/04/07 20:07:17;;;;;;;5.30;4.75;;;;;;;18.47;100.00;101183.50;10071815;28;20035;-72
2024/04/07 20:12:12;;;;;;;6.13;4.70;;;;;;;18.43;100.00;101184.59;10071636;28;20098;-73
2024/04/07 20:17:08;;;;;;;5.47;4.97;;;;;;;18.52;100.00;101179.66;10058675;28;20043;-72
2024/04/07 20:22:04;;;;;;;6.93;5.00;;;;;;;18.55;100.00;101178.94;10060064;28;20059;-72
2024/04/07 20:26:59;;;;;;;9.30;4.72;;;;;;;18.51;100.00;101180.81;10077477;28;20079;-72
2024/04/07 20:32:01;;;;;;;5.00;4.30;;;;;;;18.53;100.00;101169.38;10084519;28;20067;-72
2024/04/07 20:36:57;;;;;;;;;;;;;;;18.42;100.00;101163.59;10071639;28;20081;-72
2024/04/07 20:41:55;;;;;;;5.18;4.20;;;;;;;18.27;100.00;101168.81;10064733;28;19934;-71
2024/04/07 20:46:53;;;;;;;5.47;4.47;;;;;;;18.33;100.00;101165.75;10070024;28;20077;-72
2024/04/07 20:51:50;;;;;;;4.93;4.35;;;;;;;18.20;100.00;101163.09;10083445;28;20063;-71
2024/04/07 20:56:46;;;;;;;5.00;4.55;;;;;;;18.11;100.00;101143.13;10048910;28;20074;-72
2024/04/07 21:01:41;;;;;;;5.10;4.60;;;;;;;18.02;100.00;101139.72;10068392;28;20476;-72
2024/04/07 21:06:38;;;;;;;11.02;4.97;;;;;;;17.88;100.00;101149.28;10068280;28;20134;-72
2024/04/07 21:11:34;;;;;;;5.95;4.20;;;;;;;18.16;100.00;101148.38;10072829;28;20047;-73
2024/04/07 21:16:29;;;;;;;5.50;3.97;;;;;;;18.20;100.00;101152.03;10073814;28;20511;-73
2024/04/07 21:21:25;;;;;;;4.63;3.83;;;;;;;18.27;100.00;101152.19;10073801;28;20654;-74
2024/04/07 21:26:21;;;;;;;8.00;4.05;;;;;;;18.28;100.00;101155.75;10078260;28;20066;-74
2024/04/07 21:31:16;;;;;;;5.07;3.90;;;;;;;18.28;100.00;101167.63;10107259;28;20054;-73
2024/04/07 21:36:12;;;;;;;5.78;3.67;;;;;;;18.24;100.00;101155.69;10081325;28;20051;-71
2024/04/07 21:41:07;;;;;;;8.15;4.25;;;;;;;18.11;100.00;101158.91;10096012;28;20055;-71
2024/04/07 21:46:03;;;;;;;5.30;4.20;;;;;;;18.07;100.00;101169.88;10062057;28;20043;-72
2024/04/07 21:50:59;;;;;;;5.15;4.30;;;;;;;17.84;100.00;101184.34;10092789;28;20047;-71
2024/04/07 21:55:54;;;;;;;4.28;3.88;;;;;;;17.75;100.00;101183.66;10076831;28;20077;-70
2024/04/07 22:00:50;;;;;;;9.40;4.05;;;;;;;17.58;100.00;101187.59;10093083;28;20047;-70
2024/04/07 22:07:07;;;;;;;6.53;3.83;;;;;;;17.31;100.00;101172.63;10839291;26;20437;-70
2024/04/07 22:12:05;;;;;;;6.70;4.15;;;;;;;17.35;100.00;101168.00;10749383;26;20063;-71
2024/04/07 22:17:02;;;;;;;4.43;3.90;;;;;;;17.48;100.00;101165.19;10752884;26;20034;-71
2024/04/07 22:21:59;;;;;;;5.47;3.80;;;;;;;17.45;100.00;101177.72;10755090;26;20145;-71
2024/04/07 22:26:59;;;;;;;7.68;3.83;;;;;;;17.31;100.00;101177.34;10748561;26;20076;-71
2024/04/07 22:31:56;;;;;;;4.72;4.03;;;;;;;17.23;100.00;101171.63;10748622;26;20006;-71
2024/04/07 22:36:54;;;;;;;4.65;4.10;;;;;;;17.24;100.00;101184.31;10747940;26;20081;-70